createdAt,value
2018-06-05T00:01:49.472Z,57.60
2018-06-05T00:04:16.322Z,57.80
2018-06-05T00:06:44.706Z,58.20
2018-06-05T00:09:11.767Z,58.20
2018-06-05T00:11:39.018Z,58.00
2018-06-05T00:14:06.281Z,58.90
2018-06-05T00:16:33.535Z,58.30
2018-06-05T00:19:00.486Z,58.40
2018-06-05T00:21:27.436Z,58.70
2018-06-05T00:23:55.411Z,59.00
2018-06-05T00:26:22.481Z,59.00
2018-06-05T00:28:49.418Z,59.20
2018-06-05T00:31:17.085Z,59.60
2018-06-05T00:33:45.061Z,59.40
2018-06-05T00:36:12.034Z,59.80
2018-06-05T00:38:39.677Z,60.60
2018-06-05T00:41:07.346Z,60.60
2018-06-05T00:43:34.504Z,60.70
2018-06-05T00:46:01.865Z,61.00
2018-06-05T00:48:29.120Z,61.50
2018-06-05T00:50:57.096Z,61.60
2018-06-05T00:53:23.944Z,62.20
2018-06-05T00:55:50.796Z,62.20
2018-06-05T00:58:17.848Z,62.60
2018-06-05T01:00:45.433Z,62.60
2018-06-05T01:03:13.390Z,62.30
2018-06-05T01:05:40.747Z,62.30
2018-06-05T01:08:07.601Z,62.10
2018-06-05T01:10:34.755Z,63.10
2018-06-05T01:13:01.807Z,62.70
2018-06-05T01:15:28.658Z,63.10
2018-06-05T01:17:56.120Z,63.50
2018-06-05T01:20:23.175Z,63.40
2018-06-05T01:22:50.431Z,63.40
2018-06-05T01:25:18.200Z,63.80
2018-06-05T01:27:45.052Z,63.80
2018-06-05T01:30:12.614Z,63.40
2018-06-05T01:32:39.770Z,64.00
2018-06-05T01:35:06.848Z,64.10
2018-06-05T01:37:33.775Z,64.50
2018-06-05T01:40:01.444Z,64.70
2018-06-05T01:42:28.806Z,65.00
2018-06-05T01:44:56.576Z,65.00
2018-06-05T01:47:23.527Z,65.80
2018-06-05T01:49:50.483Z,65.90
2018-06-05T01:52:18.248Z,66.20
2018-06-05T01:54:45.199Z,66.60
2018-06-05T01:57:12.559Z,66.80
2018-06-05T01:59:39.821Z,67.20
2018-06-05T02:02:06.974Z,67.20
2018-06-05T02:04:34.335Z,66.90
2018-06-05T02:07:02.106Z,68.60
2018-06-05T02:09:29.160Z,67.40
2018-06-05T02:11:56.111Z,67.40
2018-06-05T02:14:23.882Z,67.20
2018-06-05T02:16:51.249Z,67.50
2018-06-05T02:19:18.294Z,67.50
2018-06-05T02:21:45.453Z,67.50
2018-06-05T02:24:12.606Z,67.50
2018-06-05T02:26:40.788Z,67.70
2018-06-05T02:29:08.866Z,67.70
2018-06-05T02:31:36.530Z,69.10
2018-06-05T02:34:03.690Z,68.40
2018-06-05T02:36:31.663Z,68.30
2018-06-05T02:38:58.512Z,68.30
2018-06-05T02:41:25.767Z,68.80
2018-06-05T02:43:52.618Z,68.90
2018-06-05T02:46:19.776Z,69.10
2018-06-05T02:48:46.726Z,68.80
2018-06-05T02:51:15.417Z,69.20
2018-06-05T02:53:42.675Z,69.20
2018-06-05T02:56:11.365Z,69.40
2018-06-05T02:58:38.215Z,70.00
2018-06-05T03:01:05.063Z,69.50
2018-06-05T03:03:32.218Z,69.90
2018-06-05T03:05:58.966Z,69.90
2018-06-05T03:08:25.815Z,69.60
2018-06-05T03:10:52.973Z,69.70
2018-06-05T03:13:19.717Z,70.60
2018-06-05T03:15:46.566Z,70.00
2018-06-05T03:18:13.416Z,70.00
2018-06-05T03:20:40.573Z,70.00
2018-06-05T03:23:08.364Z,69.60
2018-06-05T03:25:35.293Z,69.90
2018-06-05T03:28:02.960Z,70.50
2018-06-05T03:30:29.811Z,70.40
2018-06-05T03:32:57.067Z,70.50
2018-06-05T03:35:25.246Z,70.60
2018-06-05T03:37:52.099Z,70.70
2018-06-05T03:40:19.049Z,70.40
2018-06-05T03:42:46.307Z,70.50
2018-06-05T03:45:13.362Z,69.90
2018-06-05T03:47:40.627Z,69.90
2018-06-05T03:50:07.875Z,69.30
2018-06-05T03:52:34.931Z,68.10
2018-06-05T03:55:01.881Z,68.00
2018-06-05T03:57:28.833Z,68.10
2018-06-05T03:59:55.786Z,67.60
2018-06-05T04:02:23.044Z,68.00
2018-06-05T04:04:49.788Z,68.50
2018-06-05T04:07:17.149Z,68.10
2018-06-05T04:09:43.896Z,68.20
2018-06-05T04:12:10.756Z,68.30
2018-06-05T04:14:37.697Z,67.40
2018-06-05T04:17:04.854Z,66.10
2018-06-05T04:19:32.115Z,65.80
2018-06-05T04:21:59.276Z,64.70
2018-06-05T04:24:26.348Z,62.50
2018-06-05T04:26:53.274Z,60.50
2018-06-05T04:29:21.453Z,55.40
2018-06-05T04:31:48.300Z,55.20
2018-06-05T04:34:15.456Z,52.10
2018-06-05T04:36:42.512Z,47.50
2018-06-05T04:39:09.463Z,45.20
2018-06-05T04:41:36.311Z,44.70
2018-06-05T04:44:03.674Z,45.90
2018-06-05T04:46:30.520Z,48.40
2018-06-05T04:48:57.474Z,49.70
2018-06-05T04:51:24.527Z,48.30
2018-06-05T04:53:52.197Z,47.10
2018-06-05T04:56:19.044Z,46.80
2018-06-05T04:58:46.094Z,46.70
2018-06-05T05:01:13.355Z,49.60
2018-06-05T05:03:40.215Z,52.20
2018-06-05T05:06:07.050Z,49.90
2018-06-05T05:08:33.903Z,50.20
2018-06-05T05:11:01.056Z,50.30
2018-06-05T05:13:28.726Z,52.40
2018-06-05T05:15:55.880Z,54.60
2018-06-05T05:18:22.729Z,55.50
2018-06-05T05:20:49.684Z,56.80
2018-06-05T05:23:17.249Z,57.60
2018-06-05T05:25:44.095Z,58.00
2018-06-05T05:28:11.354Z,58.30
2018-06-05T05:30:38.713Z,57.10
2018-06-05T05:33:05.563Z,54.30
2018-06-05T05:35:32.411Z,52.80
2018-06-05T05:37:59.567Z,53.60
2018-06-05T05:40:27.852Z,54.80
2018-06-05T05:42:55.723Z,56.60
2018-06-05T05:45:22.877Z,56.50
2018-06-05T05:47:49.643Z,56.70
2018-06-05T05:50:17.297Z,56.40
2018-06-05T05:52:44.246Z,56.30
2018-06-05T05:55:11.606Z,53.10
2018-06-05T05:57:38.557Z,53.30
2018-06-05T06:00:05.506Z,53.40
2018-06-05T06:02:32.458Z,52.60
2018-06-05T06:04:59.718Z,53.80
2018-06-05T06:07:26.976Z,55.30
2018-06-05T06:09:53.928Z,52.50
2018-06-05T06:12:20.882Z,48.20
2018-06-05T06:14:47.829Z,47.30
2018-06-05T06:17:14.987Z,48.40
2018-06-05T06:19:41.833Z,49.20
2018-06-05T06:22:08.787Z,50.80
2018-06-05T06:24:35.736Z,53.10
2018-06-05T06:27:02.741Z,54.50
2018-06-05T06:29:29.543Z,55.70
2018-06-05T06:31:57.515Z,56.30
2018-06-05T06:34:24.257Z,56.30
2018-06-05T06:36:51.212Z,56.40
2018-06-05T06:39:18.061Z,56.00
2018-06-05T06:41:45.009Z,55.90
2018-06-05T06:44:11.859Z,56.50
2018-06-05T06:46:38.708Z,56.60
2018-06-05T06:49:06.045Z,56.70
2018-06-05T06:51:33.020Z,56.90
2018-06-05T06:53:59.970Z,57.20
2018-06-05T06:56:27.334Z,56.50
2018-06-05T06:58:54.182Z,55.60
2018-06-05T07:01:21.135Z,55.50
2018-06-05T07:03:48.389Z,55.00
2018-06-05T07:06:15.137Z,54.70
2018-06-05T07:08:42.394Z,54.50
2018-06-05T07:11:09.655Z,54.50
2018-06-05T07:13:36.503Z,53.60
2018-06-05T07:16:03.456Z,52.30
2018-06-05T07:18:30.612Z,52.10
2018-06-05T07:20:57.561Z,52.50
2018-06-05T07:23:24.514Z,52.20
2018-06-05T07:25:51.364Z,52.90
2018-06-05T07:28:18.210Z,51.80
2018-06-05T07:30:45.062Z,52.10
2018-06-05T07:33:12.831Z,52.60
2018-06-05T07:35:39.893Z,52.50
2018-06-05T07:38:06.738Z,51.10
2018-06-05T07:40:33.484Z,50.50
2018-06-05T07:43:00.328Z,49.50
2018-06-05T07:45:27.386Z,48.10
2018-06-05T07:47:54.744Z,49.70
2018-06-05T07:50:22.105Z,49.20
2018-06-05T07:52:49.364Z,49.50
2018-06-05T07:55:16.326Z,48.60
2018-06-05T07:57:43.161Z,49.00
2018-06-05T08:00:10.828Z,49.10
2018-06-05T08:02:37.677Z,49.00
2018-06-05T08:05:04.837Z,49.60
2018-06-05T08:07:31.992Z,48.70
2018-06-05T08:09:58.944Z,50.10
2018-06-05T08:12:25.793Z,49.20
2018-06-05T08:14:52.640Z,47.00
2018-06-05T08:17:20.412Z,44.90
2018-06-05T08:19:47.772Z,44.60
2018-06-05T08:22:14.520Z,44.80
2018-06-05T08:24:41.571Z,46.10
2018-06-05T08:27:08.419Z,46.20
2018-06-05T08:29:35.372Z,45.90
2018-06-05T08:32:02.731Z,45.90
2018-06-05T08:34:30.297Z,43.50
2018-06-05T08:36:57.148Z,43.50
2018-06-05T08:39:24.099Z,43.60
2018-06-05T08:41:51.460Z,43.60
2018-06-05T08:44:18.410Z,42.50
2018-06-05T08:46:45.363Z,39.70
2018-06-05T08:49:12.618Z,38.70
2018-06-05T08:51:39.576Z,37.60
2018-06-05T08:54:06.423Z,40.00
2018-06-05T08:56:33.370Z,41.50
2018-06-05T08:59:00.221Z,42.90
2018-06-05T09:01:27.378Z,42.60
2018-06-05T09:03:54.333Z,42.10
2018-06-05T09:06:21.280Z,42.60
2018-06-05T09:08:48.232Z,42.10
2018-06-05T09:11:15.183Z,42.30
2018-06-05T09:13:42.030Z,42.90
2018-06-05T09:16:08.775Z,42.80
2018-06-05T09:18:35.729Z,42.90
2018-06-05T09:21:02.589Z,44.20
2018-06-05T09:23:29.837Z,44.00
2018-06-05T09:25:56.787Z,43.10
2018-06-05T09:28:23.739Z,42.70
2018-06-05T09:30:50.588Z,42.20
2018-06-05T09:33:17.438Z,43.20
2018-06-05T09:35:45.513Z,45.00
2018-06-05T09:38:12.363Z,45.00
2018-06-05T09:40:39.218Z,45.10
2018-06-05T09:43:06.062Z,46.20
2018-06-05T09:45:33.320Z,46.30
2018-06-05T09:48:00.678Z,45.80
2018-06-05T09:50:27.528Z,46.20
2018-06-05T09:52:54.480Z,45.50
2018-06-05T09:55:21.634Z,45.50
2018-06-05T09:57:48.648Z,44.50
2018-06-05T10:00:15.537Z,45.00
2018-06-05T10:02:42.490Z,46.00
2018-06-05T10:05:09.447Z,45.90
2018-06-05T10:07:36.802Z,46.60
2018-06-05T10:10:04.058Z,47.70
2018-06-05T10:12:31.215Z,46.60
2018-06-05T10:14:58.066Z,44.60
2018-06-05T10:19:50.826Z,42.30
2018-06-05T10:22:19.186Z,44.00
2018-06-05T10:24:46.028Z,44.00
2018-06-05T10:27:12.979Z,44.30
2018-06-05T10:29:39.827Z,43.00
2018-06-05T10:32:06.777Z,43.40
2018-06-05T10:34:33.525Z,43.70
2018-06-05T10:37:01.194Z,45.00
2018-06-05T10:39:28.143Z,44.90
2018-06-05T10:41:55.092Z,45.90
2018-06-05T10:44:21.943Z,46.90
2018-06-05T10:46:48.862Z,46.00
2018-06-05T10:49:15.743Z,44.80
2018-06-05T10:51:42.589Z,45.60
2018-06-05T10:54:09.440Z,43.50
2018-06-05T10:56:36.291Z,44.20
2018-06-05T10:59:03.239Z,43.70
2018-06-05T11:01:29.983Z,44.30
2018-06-05T11:03:56.759Z,45.00
2018-06-05T11:06:23.685Z,44.90
2018-06-05T11:08:50.533Z,42.90
2018-06-05T11:11:17.378Z,42.40
2018-06-05T11:13:44.332Z,40.90
2018-06-05T11:16:11.282Z,40.40
2018-06-05T11:18:38.026Z,40.20
2018-06-05T11:21:04.977Z,39.60
2018-06-05T11:23:31.723Z,38.90
2018-06-05T11:25:58.575Z,39.10
2018-06-05T11:28:25.422Z,40.60
2018-06-05T11:30:52.166Z,40.40
2018-06-05T11:33:19.121Z,38.70
2018-06-05T11:35:45.970Z,38.30
2018-06-05T11:38:13.633Z,42.30
2018-06-05T11:40:40.382Z,42.30
2018-06-05T11:43:07.229Z,42.20
2018-06-05T11:45:34.078Z,44.10
2018-06-05T11:48:01.031Z,44.80
2018-06-05T11:50:27.809Z,44.40
2018-06-05T11:52:56.260Z,45.90
2018-06-05T11:55:23.110Z,45.90
2018-06-05T11:57:49.960Z,45.90
2018-06-05T12:00:16.806Z,44.20
2018-06-05T12:02:45.396Z,43.70
2018-06-05T12:05:12.243Z,42.30
2018-06-05T12:07:39.096Z,40.40
2018-06-05T12:10:06.042Z,41.00
2018-06-05T12:12:33.300Z,40.10
2018-06-05T12:15:00.254Z,41.30
2018-06-05T12:17:27.089Z,37.60
2018-06-05T12:19:53.966Z,39.40
2018-06-05T12:22:20.902Z,39.90
2018-06-05T12:24:47.645Z,40.60
2018-06-05T12:27:14.495Z,39.60
2018-06-05T12:29:41.239Z,38.80
2018-06-05T12:32:08.195Z,39.40
2018-06-05T12:34:35.045Z,39.40
2018-06-05T12:37:02.014Z,40.60
2018-06-05T12:39:28.855Z,41.10
2018-06-05T12:41:55.793Z,41.00
2018-06-05T12:44:22.638Z,40.80
2018-06-05T12:46:49.592Z,40.90
2018-06-05T12:49:16.850Z,40.60
2018-06-05T12:51:43.722Z,40.50
2018-06-05T12:54:10.546Z,41.00
2018-06-05T12:56:37.399Z,42.10
2018-06-05T12:59:04.347Z,42.20
2018-06-05T13:01:31.193Z,41.60
2018-06-05T13:03:58.144Z,41.00
2018-06-05T13:06:25.102Z,41.60
2018-06-05T13:08:51.910Z,40.40
2018-06-05T13:11:19.612Z,39.70
2018-06-05T13:13:47.175Z,39.60
2018-06-05T13:16:14.742Z,40.00
2018-06-05T13:18:41.691Z,39.90
2018-06-05T13:21:09.361Z,40.50
2018-06-05T13:23:36.313Z,40.50
2018-06-05T13:26:03.160Z,39.90
2018-06-05T13:28:30.313Z,40.40
2018-06-05T13:30:57.162Z,41.00
2018-06-05T13:33:23.908Z,41.20
2018-06-05T13:35:50.655Z,41.90
2018-06-05T13:40:39.951Z,43.00
2018-06-05T13:43:07.212Z,43.30
2018-06-05T13:45:33.965Z,43.90
2018-06-05T13:48:00.820Z,43.40
2018-06-05T13:50:27.959Z,43.90
2018-06-05T13:52:55.116Z,44.20
2018-06-05T13:55:21.964Z,44.20
2018-06-05T13:57:49.222Z,44.30
2018-06-05T14:00:15.969Z,44.70
2018-06-05T14:02:42.920Z,44.70
2018-06-05T14:05:09.742Z,45.30
2018-06-05T14:07:36.721Z,45.10
2018-06-05T14:10:05.114Z,45.40
2018-06-05T14:12:32.159Z,45.30
2018-06-05T14:14:58.901Z,45.60
2018-06-05T14:17:25.751Z,45.70
2018-06-05T14:19:52.703Z,44.70
2018-06-05T14:22:19.959Z,43.50
2018-06-05T14:24:46.911Z,44.10
2018-06-05T14:27:13.657Z,43.30
2018-06-05T14:29:40.616Z,43.70
2018-06-05T14:32:07.558Z,43.60
2018-06-05T14:34:34.408Z,42.90
2018-06-05T14:37:01.770Z,43.10
2018-06-05T14:39:28.514Z,42.50
2018-06-05T14:41:55.476Z,43.50
2018-06-05T14:44:22.416Z,43.50
2018-06-05T14:46:49.268Z,43.90
2018-06-05T14:49:16.113Z,44.40
2018-06-05T14:51:43.680Z,44.40
2018-06-05T14:54:10.582Z,43.90
2018-06-05T14:56:38.101Z,44.00
2018-06-05T14:59:04.943Z,44.00
2018-06-05T15:01:31.791Z,44.70
2018-06-05T15:03:58.537Z,44.90
2018-06-05T15:06:25.307Z,44.10
2018-06-05T15:08:52.234Z,44.30
2018-06-05T15:11:19.189Z,45.40
2018-06-05T15:13:46.748Z,46.20
2018-06-05T15:16:13.599Z,46.00
2018-06-05T15:18:40.446Z,46.50
2018-06-05T15:21:08.025Z,46.90
2018-06-05T15:23:34.962Z,47.20
2018-06-05T15:26:01.810Z,46.50
2018-06-05T15:28:28.658Z,46.80
2018-06-05T15:30:55.610Z,47.00
2018-06-05T15:33:22.461Z,46.90
2018-06-05T15:35:49.306Z,46.80
2018-06-05T15:38:16.360Z,46.70
2018-06-05T15:40:43.106Z,47.80
2018-06-05T15:43:09.823Z,48.20
2018-06-05T15:45:36.598Z,48.30
2018-06-05T15:48:03.651Z,48.30
2018-06-05T15:50:31.329Z,49.30
2018-06-05T15:52:58.373Z,49.20
2018-06-05T15:55:25.120Z,49.70
2018-06-05T15:57:52.279Z,50.40
2018-06-05T16:00:19.123Z,50.10
2018-06-05T16:02:46.074Z,50.30
2018-06-05T16:05:13.025Z,49.90
2018-06-05T16:07:40.297Z,50.30
2018-06-05T16:10:07.751Z,49.50
2018-06-05T16:12:34.903Z,50.30
2018-06-05T16:15:01.750Z,50.80
2018-06-05T16:17:28.702Z,51.10
2018-06-05T16:19:55.685Z,51.10
2018-06-05T16:22:22.502Z,51.50
2018-06-05T16:24:49.349Z,51.70
2018-06-05T16:27:16.919Z,52.00
2018-06-05T16:29:44.337Z,52.40
2018-06-05T16:32:14.043Z,51.30
2018-06-05T16:34:43.152Z,51.30
2018-06-05T16:37:13.607Z,50.20
2018-06-05T16:39:40.983Z,50.00
2018-06-05T16:42:08.921Z,50.70
2018-06-05T16:44:36.016Z,50.20
2018-06-05T16:47:03.274Z,50.10
2018-06-05T16:49:30.834Z,49.80
2018-06-05T16:51:59.117Z,49.90
2018-06-05T16:54:26.560Z,49.40
2018-06-05T16:56:54.635Z,50.40
2018-06-05T16:59:21.808Z,50.50
2018-06-05T17:01:48.849Z,50.90
2018-06-05T17:04:15.642Z,51.10
2018-06-05T17:06:43.128Z,50.60
2018-06-05T17:09:10.752Z,50.60
2018-06-05T17:11:37.721Z,50.60
2018-06-05T17:14:04.968Z,50.30
2018-06-05T17:16:31.896Z,51.20
2018-06-05T17:18:58.743Z,51.20
2018-06-05T17:21:25.696Z,50.90
2018-06-05T17:23:52.542Z,51.20
2018-06-05T17:26:19.289Z,51.60
2018-06-05T17:28:46.139Z,51.90
2018-06-05T17:31:14.335Z,51.60
2018-06-05T17:33:42.188Z,51.20
2018-06-05T17:36:08.935Z,51.50
2018-06-05T17:38:35.733Z,50.90
2018-06-05T17:41:02.562Z,50.80
2018-06-05T17:43:29.287Z,51.50
2018-06-05T17:45:56.219Z,51.40
2018-06-05T17:48:23.087Z,51.40
2018-06-05T17:50:50.080Z,52.50
2018-06-05T17:53:16.825Z,53.20
2018-06-05T17:55:43.735Z,54.30
2018-06-05T17:58:10.909Z,52.80
2018-06-05T18:00:37.728Z,51.70
2018-06-05T18:03:04.524Z,51.70
2018-06-05T18:05:34.312Z,51.70
2018-06-05T18:08:01.834Z,53.00
2018-06-05T18:10:29.039Z,52.40
2018-06-05T18:12:57.460Z,52.70
2018-06-05T18:15:25.491Z,53.10
2018-06-05T18:17:53.779Z,53.20
2018-06-05T18:20:21.147Z,53.20
2018-06-05T18:22:48.433Z,53.50
2018-06-05T18:25:17.014Z,54.80
2018-06-05T18:27:44.218Z,54.80
2018-06-05T18:30:11.750Z,55.50
2018-06-05T18:32:39.105Z,55.80
2018-06-05T18:35:07.301Z,54.50
2018-06-05T18:37:34.579Z,54.50
2018-06-05T18:40:02.451Z,54.90
2018-06-05T18:42:29.681Z,55.40
2018-06-05T18:44:56.754Z,55.60
2018-06-05T18:47:24.978Z,55.30
2018-06-05T18:49:53.380Z,56.10
2018-06-05T18:52:20.794Z,56.00
2018-06-05T18:54:48.327Z,55.70
2018-06-05T18:57:17.621Z,58.20
2018-06-05T18:59:45.826Z,58.40
2018-06-05T19:02:13.914Z,58.40
2018-06-05T19:04:40.779Z,59.20
2018-06-05T19:07:08.409Z,61.30
2018-06-05T19:09:35.244Z,61.20
2018-06-05T19:12:02.331Z,62.30
2018-06-05T19:14:29.141Z,63.80
2018-06-05T19:16:56.703Z,66.40
2018-06-05T19:19:23.538Z,66.40
2018-06-05T19:21:51.098Z,67.90
2018-06-05T19:24:17.829Z,67.70
2018-06-05T19:26:45.670Z,69.50
2018-06-05T19:29:12.513Z,69.40
2018-06-05T19:31:39.333Z,70.70
2018-06-05T19:34:06.837Z,72.50
2018-06-05T19:36:34.133Z,73.30
2018-06-05T19:39:00.928Z,73.80
2018-06-05T19:41:27.745Z,74.10
2018-06-05T19:43:55.212Z,74.20
2018-06-05T19:46:23.456Z,75.10
2018-06-05T19:48:50.373Z,75.10
2018-06-05T19:51:17.441Z,75.90
2018-06-05T19:53:44.587Z,76.20
2018-06-05T19:56:11.378Z,76.90
2018-06-05T19:58:38.594Z,76.70
2018-06-05T20:01:05.538Z,76.60
2018-06-05T20:03:33.468Z,76.90
2018-06-05T20:06:00.262Z,78.00
2018-06-05T20:08:26.984Z,78.90
2018-06-05T20:10:53.695Z,79.40
2018-06-05T20:13:20.573Z,81.00
2018-06-05T20:15:47.327Z,81.40
2018-06-05T20:18:14.087Z,81.00
2018-06-05T20:20:40.844Z,81.50
2018-06-05T20:23:07.999Z,81.40
2018-06-05T20:25:34.847Z,81.70
2018-06-05T20:28:01.800Z,82.20
2018-06-05T20:30:29.160Z,82.90
2018-06-05T20:32:55.962Z,84.30
2018-06-05T20:35:23.429Z,83.40
2018-06-05T20:37:50.212Z,83.30
2018-06-05T20:40:17.044Z,83.90
2018-06-05T20:42:43.771Z,85.10
2018-06-05T20:45:11.519Z,83.90
2018-06-05T20:47:38.259Z,83.90
2018-06-05T20:50:05.073Z,84.50
2018-06-05T20:52:31.917Z,84.60
2018-06-05T20:54:58.642Z,85.10
2018-06-05T20:57:26.105Z,85.00
2018-06-05T20:59:52.976Z,84.90
2018-06-05T21:02:19.708Z,86.50
2018-06-05T21:04:46.453Z,87.40
2018-06-05T21:07:13.257Z,86.50
2018-06-05T21:09:39.981Z,87.20
2018-06-05T21:12:06.700Z,87.30
2018-06-05T21:14:33.472Z,87.70
2018-06-05T21:17:00.980Z,87.50
2018-06-05T21:19:28.129Z,88.50
2018-06-05T21:21:54.901Z,88.70
2018-06-05T21:24:22.364Z,89.80
2018-06-05T21:26:49.428Z,89.80
2018-06-05T21:29:16.158Z,90.10
2018-06-05T21:31:43.612Z,90.50
2018-06-05T21:34:11.119Z,90.70
2018-06-05T21:36:37.969Z,90.70
2018-06-05T21:39:05.085Z,91.30
2018-06-05T21:41:32.577Z,92.70
2018-06-05T21:43:59.364Z,92.70
2018-06-05T21:46:26.175Z,93.40
2018-06-05T21:48:52.893Z,93.70
2018-06-05T21:51:20.386Z,95.30
2018-06-05T21:53:47.145Z,95.20
2018-06-05T21:56:13.895Z,95.90
2018-06-05T21:58:40.632Z,96.60
2018-06-05T22:01:08.197Z,99.90
2018-06-05T22:03:34.959Z,99.90
2018-06-05T22:06:01.673Z,99.90
2018-06-05T22:08:28.456Z,99.90
2018-06-05T22:10:55.171Z,99.90
2018-06-05T22:13:22.227Z,99.90
2018-06-05T22:15:48.963Z,99.90
2018-06-05T22:18:15.960Z,99.90
2018-06-05T22:20:42.736Z,99.90
2018-06-05T22:23:10.182Z,99.90
2018-06-05T22:25:36.982Z,99.90
2018-06-05T22:28:03.693Z,99.90
2018-06-05T22:30:30.447Z,99.90
2018-06-05T22:32:57.951Z,99.90
2018-06-05T22:35:25.529Z,99.90
2018-06-05T22:37:53.437Z,99.90
2018-06-05T22:40:22.715Z,99.90
2018-06-05T22:42:50.455Z,99.90
2018-06-05T22:45:17.544Z,99.90
2018-06-05T22:47:44.988Z,99.90
2018-06-05T22:50:12.160Z,99.90
2018-06-05T22:52:39.386Z,99.90
2018-06-05T22:55:06.851Z,99.90
2018-06-05T22:57:33.868Z,99.90
2018-06-05T23:00:02.573Z,99.90
2018-06-05T23:02:29.841Z,99.90
2018-06-05T23:04:56.949Z,99.90
2018-06-05T23:07:23.987Z,99.90
2018-06-05T23:09:51.611Z,99.90
2018-06-05T23:12:18.767Z,99.90
2018-06-05T23:14:46.131Z,99.90
2018-06-05T23:17:12.874Z,99.90
2018-06-05T23:19:39.615Z,99.90
2018-06-05T23:22:06.346Z,99.90
2018-06-05T23:24:33.059Z,99.90
2018-06-05T23:26:59.808Z,99.90
2018-06-05T23:29:26.530Z,99.90
2018-06-05T23:31:53.303Z,99.90
2018-06-05T23:34:20.046Z,99.90
2018-06-05T23:36:46.827Z,99.90
2018-06-05T23:39:13.595Z,99.90
2018-06-05T23:41:40.338Z,99.90
2018-06-05T23:44:07.065Z,99.90
2018-06-05T23:46:34.112Z,99.90
2018-06-05T23:49:01.576Z,99.90
2018-06-05T23:51:29.072Z,99.90
2018-06-05T23:53:55.869Z,99.90
2018-06-05T23:56:22.565Z,99.90
2018-06-05T23:58:49.308Z,99.90
